Terminal Aerodrome Forecast
Issued by NWS Raleigh/Durham, NC

Home | Current Version | Previous Version | Text Only | Print | Product List | Glossary On
Versions: 1 2 3 4 5 6 7 8 9 10 11 12 13 14 15 16 17 18 19 20 21 22 23 24 25 26 27 28 29 30 31 32 33 34 35 36 37 38 39 40 41 42 43 44 45 46 47
000
FTUS42 KRAH 261407 AAB
TAFGSO
TAF AMD
KGSO 261407Z 2614/2712 03010G14KT 5SM -RA BR BKN008 OVC015
      TEMPO 2614/2618 2SM RA BR SCT007 OVC018
     FM261800 32009G16KT 4SM -RA BR OVC014
     FM262000 30006KT P6SM SCT035
     FM270800 15004KT 6SM -RA BR OVC012=

USA.gov is the U.S. government's official web portal to all federal, state and local government web resources and services.